sensor_id;sensor_type;location;lat;lon;timestamp;temperature;humidity
9425;DHT22;17139;52.140;11.636;2023-02-04T00:01:21;2.70;68.20
9425;DHT22;17139;52.140;11.636;2023-02-04T00:03:48;2.60;68.10
9425;DHT22;17139;52.140;11.636;2023-02-04T00:06:17;2.60;68.20
9425;DHT22;17139;52.140;11.636;2023-02-04T00:08:44;2.50;68.30
9425;DHT22;17139;52.140;11.636;2023-02-04T00:11:12;2.80;67.60
9425;DHT22;17139;52.140;11.636;2023-02-04T00:13:39;2.70;66.80
9425;DHT22;17139;52.140;11.636;2023-02-04T00:16:06;2.60;67.10
9425;DHT22;17139;52.140;11.636;2023-02-04T00:18:33;3.00;66.20
9425;DHT22;17139;52.140;11.636;2023-02-04T00:21:00;2.80;65.80
9425;DHT22;17139;52.140;11.636;2023-02-04T00:23:27;2.60;66.40
9425;DHT22;17139;52.140;11.636;2023-02-04T00:25:55;2.50;67.00
9425;DHT22;17139;52.140;11.636;2023-02-04T00:28:23;2.30;67.00
9425;DHT22;17139;52.140;11.636;2023-02-04T00:30:50;2.30;68.00
9425;DHT22;17139;52.140;11.636;2023-02-04T00:33:18;2.10;67.40
9425;DHT22;17139;52.140;11.636;2023-02-04T00:35:45;2.10;67.60
9425;DHT22;17139;52.140;11.636;2023-02-04T00:38:12;2.10;67.60
9425;DHT22;17139;52.140;11.636;2023-02-04T00:40:39;2.10;67.30
9425;DHT22;17139;52.140;11.636;2023-02-04T00:43:07;2.10;67.10
9425;DHT22;17139;52.140;11.636;2023-02-04T00:45:35;2.20;66.90
9425;DHT22;17139;52.140;11.636;2023-02-04T00:48:02;2.20;66.70
9425;DHT22;17139;52.140;11.636;2023-02-04T00:50:29;2.70;65.40
9425;DHT22;17139;52.140;11.636;2023-02-04T00:52:56;3.10;63.90
9425;DHT22;17139;52.140;11.636;2023-02-04T00:55:26;2.80;64.10
9425;DHT22;17139;52.140;11.636;2023-02-04T00:57:53;2.40;65.00
9425;DHT22;17139;52.140;11.636;2023-02-04T01:00:20;2.20;65.70
9425;DHT22;17139;52.140;11.636;2023-02-04T01:02:49;2.00;66.10
9425;DHT22;17139;52.140;11.636;2023-02-04T01:05:16;1.90;66.30
9425;DHT22;17139;52.140;11.636;2023-02-04T01:07:43;1.90;66.50
9425;DHT22;17139;52.140;11.636;2023-02-04T01:10:10;1.80;66.60
9425;DHT22;17139;52.140;11.636;2023-02-04T01:12:37;1.80;66.70
9425;DHT22;17139;52.140;11.636;2023-02-04T01:15:05;1.80;66.70
9425;DHT22;17139;52.140;11.636;2023-02-04T01:17:32;1.80;66.60
9425;DHT22;17139;52.140;11.636;2023-02-04T01:20:00;1.80;66.50
9425;DHT22;17139;52.140;11.636;2023-02-04T01:22:27;2.30;65.60
9425;DHT22;17139;52.140;11.636;2023-02-04T01:24:54;2.20;65.00
9425;DHT22;17139;52.140;11.636;2023-02-04T01:27:23;2.40;64.80
9425;DHT22;17139;52.140;11.636;2023-02-04T01:29:50;2.30;64.70
9425;DHT22;17139;52.140;11.636;2023-02-04T01:32:17;2.10;65.20
9425;DHT22;17139;52.140;11.636;2023-02-04T01:34:44;1.90;65.60
9425;DHT22;17139;52.140;11.636;2023-02-04T01:37:12;1.90;66.00
9425;DHT22;17139;52.140;11.636;2023-02-04T01:39:39;1.90;66.30
9425;DHT22;17139;52.140;11.636;2023-02-04T01:42:06;1.80;66.20
9425;DHT22;17139;52.140;11.636;2023-02-04T01:44:34;1.90;66.30
9425;DHT22;17139;52.140;11.636;2023-02-04T01:47:01;1.90;66.10
9425;DHT22;17139;52.140;11.636;2023-02-04T01:49:28;1.90;66.00
9425;DHT22;17139;52.140;11.636;2023-02-04T01:51:55;1.80;65.90
9425;DHT22;17139;52.140;11.636;2023-02-04T01:54:25;1.80;66.10
9425;DHT22;17139;52.140;11.636;2023-02-04T01:56:52;1.70;66.20
9425;DHT22;17139;52.140;11.636;2023-02-04T01:59:21;2.20;65.10
9425;DHT22;17139;52.140;11.636;2023-02-04T02:01:49;2.10;64.60
9425;DHT22;17139;52.140;11.636;2023-02-04T02:04:23;1.90;65.00
9425;DHT22;17139;52.140;11.636;2023-02-04T02:06:53;1.80;65.70
9425;DHT22;17139;52.140;11.636;2023-02-04T02:09:24;1.70;66.00
9425;DHT22;17139;52.140;11.636;2023-02-04T02:11:52;1.60;66.10
9425;DHT22;17139;52.140;11.636;2023-02-04T02:14:19;1.50;66.20
9425;DHT22;17139;52.140;11.636;2023-02-04T02:16:47;1.50;66.30
9425;DHT22;17139;52.140;11.636;2023-02-04T02:19:16;1.40;66.30
9425;DHT22;17139;52.140;11.636;2023-02-04T02:21:50;1.40;66.40
9425;DHT22;17139;52.140;11.636;2023-02-04T02:24:28;1.40;66.40
9425;DHT22;17139;52.140;11.636;2023-02-04T02:26:56;1.40;66.50
9425;DHT22;17139;52.140;11.636;2023-02-04T02:29:26;1.40;66.50
9425;DHT22;17139;52.140;11.636;2023-02-04T02:31:55;1.40;66.50
9425;DHT22;17139;52.140;11.636;2023-02-04T02:34:23;1.40;66.40
9425;DHT22;17139;52.140;11.636;2023-02-04T02:36:50;1.50;66.40
9425;DHT22;17139;52.140;11.636;2023-02-04T02:39:17;1.50;66.30
9425;DHT22;17139;52.140;11.636;2023-02-04T02:41:46;1.70;66.50
9425;DHT22;17139;52.140;11.636;2023-02-04T02:44:15;1.70;65.90
9425;DHT22;17139;52.140;11.636;2023-02-04T02:46:43;1.80;65.90
9425;DHT22;17139;52.140;11.636;2023-02-04T02:49:11;1.80;65.90
9425;DHT22;17139;52.140;11.636;2023-02-04T02:51:40;1.80;65.80
9425;DHT22;17139;52.140;11.636;2023-02-04T02:54:09;1.80;65.80
9425;DHT22;17139;52.140;11.636;2023-02-04T02:56:40;1.70;66.50
9425;DHT22;17139;52.140;11.636;2023-02-04T02:59:15;1.70;65.80
9425;DHT22;17139;52.140;11.636;2023-02-04T03:01:43;1.80;65.90
9425;DHT22;17139;52.140;11.636;2023-02-04T03:04:11;1.80;65.90
9425;DHT22;17139;52.140;11.636;2023-02-04T03:06:38;1.80;65.90
9425;DHT22;17139;52.140;11.636;2023-02-04T03:09:06;1.90;65.90
9425;DHT22;17139;52.140;11.636;2023-02-04T03:11:33;1.90;65.70
9425;DHT22;17139;52.140;11.636;2023-02-04T03:14:00;1.90;65.80
9425;DHT22;17139;52.140;11.636;2023-02-04T03:16:29;1.90;65.80
9425;DHT22;17139;52.140;11.636;2023-02-04T03:18:58;1.90;65.70
9425;DHT22;17139;52.140;11.636;2023-02-04T03:21:25;2.00;65.80
9425;DHT22;17139;52.140;11.636;2023-02-04T03:23:53;1.90;65.60
9425;DHT22;17139;52.140;11.636;2023-02-04T03:26:21;2.00;65.60
9425;DHT22;17139;52.140;11.636;2023-02-04T03:28:48;2.00;65.60
9425;DHT22;17139;52.140;11.636;2023-02-04T03:31:15;2.10;65.70
9425;DHT22;17139;52.140;11.636;2023-02-04T03:33:44;2.00;65.50
9425;DHT22;17139;52.140;11.636;2023-02-04T03:36:11;2.00;65.60
9425;DHT22;17139;52.140;11.636;2023-02-04T03:38:38;2.00;65.60
9425;DHT22;17139;52.140;11.636;2023-02-04T03:41:05;2.00;65.60
9425;DHT22;17139;52.140;11.636;2023-02-04T03:43:32;2.00;65.60
9425;DHT22;17139;52.140;11.636;2023-02-04T03:45:59;2.00;65.50
9425;DHT22;17139;52.140;11.636;2023-02-04T03:48:26;2.00;65.50
9425;DHT22;17139;52.140;11.636;2023-02-04T03:50:55;2.80;64.10
9425;DHT22;17139;52.140;11.636;2023-02-04T03:53:22;2.60;63.70
9425;DHT22;17139;52.140;11.636;2023-02-04T03:55:49;2.40;64.10
9425;DHT22;17139;52.140;11.636;2023-02-04T03:58:16;2.30;64.70
9425;DHT22;17139;52.140;11.636;2023-02-04T04:00:43;2.20;64.90
9425;DHT22;17139;52.140;11.636;2023-02-04T04:03:10;2.10;65.00
9425;DHT22;17139;52.140;11.636;2023-02-04T04:05:37;2.10;65.20
9425;DHT22;17139;52.140;11.636;2023-02-04T04:08:06;1.90;65.30
9425;DHT22;17139;52.140;11.636;2023-02-04T04:10:33;1.80;65.60
9425;DHT22;17139;52.140;11.636;2023-02-04T04:13:00;1.70;65.70
9425;DHT22;17139;52.140;11.636;2023-02-04T04:15:27;1.60;65.70
9425;DHT22;17139;52.140;11.636;2023-02-04T04:17:55;1.50;65.80
9425;DHT22;17139;52.140;11.636;2023-02-04T04:20:22;1.40;65.90
9425;DHT22;17139;52.140;11.636;2023-02-04T04:22:51;1.40;66.00
9425;DHT22;17139;52.140;11.636;2023-02-04T04:25:20;1.30;66.10
9425;DHT22;17139;52.140;11.636;2023-02-04T04:27:47;1.30;66.10
9425;DHT22;17139;52.140;11.636;2023-02-04T04:30:14;1.20;66.10
9425;DHT22;17139;52.140;11.636;2023-02-04T04:32:41;1.40;65.90
9425;DHT22;17139;52.140;11.636;2023-02-04T04:35:08;1.40;65.50
9425;DHT22;17139;52.140;11.636;2023-02-04T04:37:35;1.30;65.60
9425;DHT22;17139;52.140;11.636;2023-02-04T04:40:02;1.20;65.70
9425;DHT22;17139;52.140;11.636;2023-02-04T04:42:31;1.10;65.90
9425;DHT22;17139;52.140;11.636;2023-02-04T04:44:58;1.00;65.90
9425;DHT22;17139;52.140;11.636;2023-02-04T04:47:25;1.00;66.00
9425;DHT22;17139;52.140;11.636;2023-02-04T04:49:52;0.90;66.10
9425;DHT22;17139;52.140;11.636;2023-02-04T04:52:19;0.90;66.10
9425;DHT22;17139;52.140;11.636;2023-02-04T04:54:46;0.80;66.20
9425;DHT22;17139;52.140;11.636;2023-02-04T04:57:13;0.80;66.20
9425;DHT22;17139;52.140;11.636;2023-02-04T04:59:41;0.70;66.10
9425;DHT22;17139;52.140;11.636;2023-02-04T05:02:08;0.70;66.20
9425;DHT22;17139;52.140;11.636;2023-02-04T05:04:35;0.70;66.40
9425;DHT22;17139;52.140;11.636;2023-02-04T05:07:02;0.60;66.30
9425;DHT22;17139;52.140;11.636;2023-02-04T05:09:30;0.60;66.30
9425;DHT22;17139;52.140;11.636;2023-02-04T05:11:57;1.00;65.70
9425;DHT22;17139;52.140;11.636;2023-02-04T05:14:24;1.00;65.10
9425;DHT22;17139;52.140;11.636;2023-02-04T05:16:52;0.80;65.30
9425;DHT22;17139;52.140;11.636;2023-02-04T05:19:21;1.10;65.30
9425;DHT22;17139;52.140;11.636;2023-02-04T05:21:48;1.00;64.80
9425;DHT22;17139;52.140;11.636;2023-02-04T05:24:15;0.80;65.00
9425;DHT22;17139;52.140;11.636;2023-02-04T05:26:42;0.70;65.40
9425;DHT22;17139;52.140;11.636;2023-02-04T05:29:09;0.60;65.50
9425;DHT22;17139;52.140;11.636;2023-02-04T05:31:37;0.60;65.70
9425;DHT22;17139;52.140;11.636;2023-02-04T05:34:05;0.50;65.80
9425;DHT22;17139;52.140;11.636;2023-02-04T05:36:32;0.50;65.90
9425;DHT22;17139;52.140;11.636;2023-02-04T05:38:59;0.40;65.80
9425;DHT22;17139;52.140;11.636;2023-02-04T05:41:26;0.40;66.00
9425;DHT22;17139;52.140;11.636;2023-02-04T05:43:53;0.30;66.00
9425;DHT22;17139;52.140;11.636;2023-02-04T05:46:20;0.20;66.10
9425;DHT22;17139;52.140;11.636;2023-02-04T05:48:47;0.20;66.20
9425;DHT22;17139;52.140;11.636;2023-02-04T05:51:16;0.20;66.20
9425;DHT22;17139;52.140;11.636;2023-02-04T05:53:43;0.20;66.20
9425;DHT22;17139;52.140;11.636;2023-02-04T05:56:11;0.20;66.30
9425;DHT22;17139;52.140;11.636;2023-02-04T05:58:38;0.80;65.20
9425;DHT22;17139;52.140;11.636;2023-02-04T06:01:05;0.70;64.60
9425;DHT22;17139;52.140;11.636;2023-02-04T06:03:32;0.50;65.00
9425;DHT22;17139;52.140;11.636;2023-02-04T06:05:59;0.40;65.50
9425;DHT22;17139;52.140;11.636;2023-02-04T06:08:28;0.30;65.70
9425;DHT22;17139;52.140;11.636;2023-02-04T06:10:55;0.20;65.90
9425;DHT22;17139;52.140;11.636;2023-02-04T06:13:22;0.10;66.00
9425;DHT22;17139;52.140;11.636;2023-02-04T06:15:49;0.10;66.30
9425;DHT22;17139;52.140;11.636;2023-02-04T06:18:16;0.00;66.40
9425;DHT22;17139;52.140;11.636;2023-02-04T06:20:43;0.00;66.50
9425;DHT22;17139;52.140;11.636;2023-02-04T06:23:10;-0.10;66.50
9425;DHT22;17139;52.140;11.636;2023-02-04T06:25:39;-0.10;66.60
9425;DHT22;17139;52.140;11.636;2023-02-04T06:28:06;-0.10;66.50
9425;DHT22;17139;52.140;11.636;2023-02-04T06:30:33;0.00;66.60
9425;DHT22;17139;52.140;11.636;2023-02-04T06:33:02;0.00;66.40
9425;DHT22;17139;52.140;11.636;2023-02-04T06:35:29;-0.10;66.30
9425;DHT22;17139;52.140;11.636;2023-02-04T06:37:56;0.40;65.80
9425;DHT22;17139;52.140;11.636;2023-02-04T06:40:23;0.30;64.80
9425;DHT22;17139;52.140;11.636;2023-02-04T06:42:51;0.20;65.10
9425;DHT22;17139;52.140;11.636;2023-02-04T06:45:18;0.80;64.50
9425;DHT22;17139;52.140;11.636;2023-02-04T06:47:45;0.60;63.80
9425;DHT22;17139;52.140;11.636;2023-02-04T06:50:12;0.40;64.50
9425;DHT22;17139;52.140;11.636;2023-02-04T06:52:43;0.30;64.90
9425;DHT22;17139;52.140;11.636;2023-02-04T06:55:11;0.10;65.10
9425;DHT22;17139;52.140;11.636;2023-02-04T06:57:38;0.00;65.40
9425;DHT22;17139;52.140;11.636;2023-02-04T07:00:08;0.00;65.50
9425;DHT22;17139;52.140;11.636;2023-02-04T07:02:36;0.00;65.60
9425;DHT22;17139;52.140;11.636;2023-02-04T07:05:05;-0.10;65.60
9425;DHT22;17139;52.140;11.636;2023-02-04T07:07:32;-0.10;65.70
9425;DHT22;17139;52.140;11.636;2023-02-04T07:09:59;-0.20;65.70
9425;DHT22;17139;52.140;11.636;2023-02-04T07:12:26;-0.20;65.80
9425;DHT22;17139;52.140;11.636;2023-02-04T07:14:54;-0.20;65.80
9425;DHT22;17139;52.140;11.636;2023-02-04T07:17:22;-0.30;65.80
9425;DHT22;17139;52.140;11.636;2023-02-04T07:19:49;-0.20;65.90
9425;DHT22;17139;52.140;11.636;2023-02-04T07:22:17;-0.20;65.80
9425;DHT22;17139;52.140;11.636;2023-02-04T07:24:44;-0.20;65.70
9425;DHT22;17139;52.140;11.636;2023-02-04T07:27:12;-0.20;65.70
9425;DHT22;17139;52.140;11.636;2023-02-04T07:29:39;-0.10;65.70
9425;DHT22;17139;52.140;11.636;2023-02-04T07:32:06;-0.10;65.50
9425;DHT22;17139;52.140;11.636;2023-02-04T07:34:34;-0.10;65.60
9425;DHT22;17139;52.140;11.636;2023-02-04T07:37:01;0.60;65.10
9425;DHT22;17139;52.140;11.636;2023-02-04T07:39:29;0.50;64.30
9425;DHT22;17139;52.140;11.636;2023-02-04T07:41:56;0.40;64.60
9425;DHT22;17139;52.140;11.636;2023-02-04T07:44:23;0.30;64.90
9425;DHT22;17139;52.140;11.636;2023-02-04T07:46:50;0.30;65.10
9425;DHT22;17139;52.140;11.636;2023-02-04T07:49:17;0.50;65.40
9425;DHT22;17139;52.140;11.636;2023-02-04T07:51:45;1.10;64.60
9425;DHT22;17139;52.140;11.636;2023-02-04T07:54:12;1.00;63.80
9425;DHT22;17139;52.140;11.636;2023-02-04T07:56:39;0.80;64.30
9425;DHT22;17139;52.140;11.636;2023-02-04T07:59:06;0.70;64.70
9425;DHT22;17139;52.140;11.636;2023-02-04T08:01:33;0.60;64.80
9425;DHT22;17139;52.140;11.636;2023-02-04T08:04:00;0.60;65.00
9425;DHT22;17139;52.140;11.636;2023-02-04T08:06:27;0.50;65.20
9425;DHT22;17139;52.140;11.636;2023-02-04T08:08:56;0.50;65.20
9425;DHT22;17139;52.140;11.636;2023-02-04T08:11:23;0.50;65.30
9425;DHT22;17139;52.140;11.636;2023-02-04T08:13:51;0.50;65.30
9425;DHT22;17139;52.140;11.636;2023-02-04T08:16:18;0.50;65.30
9425;DHT22;17139;52.140;11.636;2023-02-04T08:18:45;0.60;65.20
9425;DHT22;17139;52.140;11.636;2023-02-04T08:21:12;1.10;65.30
9425;DHT22;17139;52.140;11.636;2023-02-04T08:23:39;1.10;64.40
9425;DHT22;17139;52.140;11.636;2023-02-04T08:26:09;1.00;64.50
9425;DHT22;17139;52.140;11.636;2023-02-04T08:28:37;0.90;64.70
9425;DHT22;17139;52.140;11.636;2023-02-04T08:31:04;0.90;64.80
9425;DHT22;17139;52.140;11.636;2023-02-04T08:33:31;0.80;64.90
9425;DHT22;17139;52.140;11.636;2023-02-04T08:35:58;0.80;65.00
9425;DHT22;17139;52.140;11.636;2023-02-04T08:38:25;0.80;64.90
9425;DHT22;17139;52.140;11.636;2023-02-04T08:40:52;0.90;65.10
9425;DHT22;17139;52.140;11.636;2023-02-04T08:43:21;0.80;65.00
9425;DHT22;17139;52.140;11.636;2023-02-04T08:45:48;0.80;65.00
9425;DHT22;17139;52.140;11.636;2023-02-04T08:48:15;0.80;65.00
9425;DHT22;17139;52.140;11.636;2023-02-04T08:50:42;0.80;65.00
9425;DHT22;17139;52.140;11.636;2023-02-04T08:53:09;0.80;65.00
9425;DHT22;17139;52.140;11.636;2023-02-04T08:55:36;0.80;65.00
9425;DHT22;17139;52.140;11.636;2023-02-04T08:58:03;1.60;64.40
9425;DHT22;17139;52.140;11.636;2023-02-04T09:00:31;2.10;62.80
9425;DHT22;17139;52.140;11.636;2023-02-04T09:02:58;1.80;62.70
9425;DHT22;17139;52.140;11.636;2023-02-04T09:05:25;1.50;63.20
9425;DHT22;17139;52.140;11.636;2023-02-04T09:07:52;1.30;64.00
9425;DHT22;17139;52.140;11.636;2023-02-04T09:10:19;1.20;65.10
9425;DHT22;17139;52.140;11.636;2023-02-04T09:12:47;1.10;64.60
9425;DHT22;17139;52.140;11.636;2023-02-04T09:15:14;1.10;64.80
9425;DHT22;17139;52.140;11.636;2023-02-04T09:17:42;1.10;64.80
9425;DHT22;17139;52.140;11.636;2023-02-04T09:20:10;1.10;64.80
9425;DHT22;17139;52.140;11.636;2023-02-04T09:22:37;1.20;64.80
9425;DHT22;17139;52.140;11.636;2023-02-04T09:25:05;1.10;64.80
9425;DHT22;17139;52.140;11.636;2023-02-04T09:27:32;1.90;63.80
9425;DHT22;17139;52.140;11.636;2023-02-04T09:29:59;1.80;63.40
9425;DHT22;17139;52.140;11.636;2023-02-04T09:32:26;1.70;63.40
9425;DHT22;17139;52.140;11.636;2023-02-04T09:34:55;1.60;63.50
9425;DHT22;17139;52.140;11.636;2023-02-04T09:37:22;1.50;63.90
9425;DHT22;17139;52.140;11.636;2023-02-04T09:39:51;1.50;64.20
9425;DHT22;17139;52.140;11.636;2023-02-04T09:42:20;1.50;64.40
9425;DHT22;17139;52.140;11.636;2023-02-04T09:44:50;1.50;64.40
9425;DHT22;17139;52.140;11.636;2023-02-04T09:47:20;1.50;64.40
9425;DHT22;17139;52.140;11.636;2023-02-04T09:49:48;1.50;64.30
9425;DHT22;17139;52.140;11.636;2023-02-04T09:52:17;1.50;64.30
9425;DHT22;17139;52.140;11.636;2023-02-04T09:54:45;1.60;64.40
9425;DHT22;17139;52.140;11.636;2023-02-04T09:57:14;1.60;64.40
9425;DHT22;17139;52.140;11.636;2023-02-04T09:59:43;1.60;64.50
9425;DHT22;17139;52.140;11.636;2023-02-04T10:02:20;2.30;63.10
9425;DHT22;17139;52.140;11.636;2023-02-04T10:04:47;2.70;61.70
9425;DHT22;17139;52.140;11.636;2023-02-04T10:07:18;2.40;62.00
9425;DHT22;17139;52.140;11.636;2023-02-04T10:09:49;2.20;62.90
9425;DHT22;17139;52.140;11.636;2023-02-04T10:12:16;2.00;63.40
9425;DHT22;17139;52.140;11.636;2023-02-04T10:14:43;1.90;63.60
9425;DHT22;17139;52.140;11.636;2023-02-04T10:17:11;1.90;63.80
9425;DHT22;17139;52.140;11.636;2023-02-04T10:19:43;1.90;64.00
9425;DHT22;17139;52.140;11.636;2023-02-04T10:22:17;1.90;64.10
9425;DHT22;17139;52.140;11.636;2023-02-04T10:24:45;1.90;64.10
9425;DHT22;17139;52.140;11.636;2023-02-04T10:27:13;2.20;63.80
9425;DHT22;17139;52.140;11.636;2023-02-04T10:29:42;2.20;63.30
9425;DHT22;17139;52.140;11.636;2023-02-04T10:32:28;2.90;61.70
9425;DHT22;17139;52.140;11.636;2023-02-04T10:34:57;2.60;61.80
9425;DHT22;17139;52.140;11.636;2023-02-04T10:37:26;2.50;62.80
9425;DHT22;17139;52.140;11.636;2023-02-04T10:39:54;2.40;63.20
9425;DHT22;17139;52.140;11.636;2023-02-04T10:42:22;2.30;63.50
9425;DHT22;17139;52.140;11.636;2023-02-04T10:44:50;2.30;63.70
9425;DHT22;17139;52.140;11.636;2023-02-04T10:47:18;2.20;63.80
9425;DHT22;17139;52.140;11.636;2023-02-04T10:49:53;2.30;64.00
9425;DHT22;17139;52.140;11.636;2023-02-04T10:52:27;2.30;64.00
9425;DHT22;17139;52.140;11.636;2023-02-04T10:54:57;2.30;64.00
9425;DHT22;17139;52.140;11.636;2023-02-04T10:57:26;2.40;64.00
9425;DHT22;17139;52.140;11.636;2023-02-04T10:59:57;2.50;63.80
9425;DHT22;17139;52.140;11.636;2023-02-04T11:02:34;2.60;63.70
9425;DHT22;17139;52.140;11.636;2023-02-04T11:05:03;3.30;61.90
9425;DHT22;17139;52.140;11.636;2023-02-04T11:07:30;3.20;62.80
9425;DHT22;17139;52.140;11.636;2023-02-04T11:09:59;3.10;62.50
9425;DHT22;17139;52.140;11.636;2023-02-04T11:12:37;3.00;62.80
9425;DHT22;17139;52.140;11.636;2023-02-04T11:15:32;2.90;63.10
9425;DHT22;17139;52.140;11.636;2023-02-04T11:18:02;2.80;63.30
9425;DHT22;17139;52.140;11.636;2023-02-04T11:20:31;2.80;63.60
9425;DHT22;17139;52.140;11.636;2023-02-04T11:23:16;2.80;63.70
9425;DHT22;17139;52.140;11.636;2023-02-04T11:25:44;2.80;63.70
9425;DHT22;17139;52.140;11.636;2023-02-04T11:28:13;2.80;63.80
9425;DHT22;17139;52.140;11.636;2023-02-04T11:30:41;2.90;63.90
9425;DHT22;17139;52.140;11.636;2023-02-04T11:33:22;3.50;61.80
9425;DHT22;17139;52.140;11.636;2023-02-04T11:36:08;3.40;62.00
9425;DHT22;17139;52.140;11.636;2023-02-04T11:38:37;3.70;61.50
9425;DHT22;17139;52.140;11.636;2023-02-04T11:41:14;3.60;62.00
9425;DHT22;17139;52.140;11.636;2023-02-04T11:43:42;3.60;62.20
9425;DHT22;17139;52.140;11.636;2023-02-04T11:46:14;3.70;62.60
9425;DHT22;17139;52.140;11.636;2023-02-04T11:48:42;3.70;62.70
9425;DHT22;17139;52.140;11.636;2023-02-04T11:51:12;3.70;62.70
9425;DHT22;17139;52.140;11.636;2023-02-04T11:53:40;3.70;62.80
9425;DHT22;17139;52.140;11.636;2023-02-04T11:56:15;3.70;62.90
9425;DHT22;17139;52.140;11.636;2023-02-04T11:58:42;3.70;62.80
9425;DHT22;17139;52.140;11.636;2023-02-04T12:01:16;3.80;62.50
9425;DHT22;17139;52.140;11.636;2023-02-04T12:03:46;3.90;62.60
9425;DHT22;17139;52.140;11.636;2023-02-04T12:06:20;3.90;62.70
9425;DHT22;17139;52.140;11.636;2023-02-04T12:08:47;4.60;59.70
9425;DHT22;17139;52.140;11.636;2023-02-04T12:11:26;4.40;60.50
9425;DHT22;17139;52.140;11.636;2023-02-04T12:13:56;4.40;61.20
9425;DHT22;17139;52.140;11.636;2023-02-04T12:16:23;4.30;61.60
9425;DHT22;17139;52.140;11.636;2023-02-04T12:18:51;4.30;61.80
9425;DHT22;17139;52.140;11.636;2023-02-04T12:21:18;4.30;62.00
9425;DHT22;17139;52.140;11.636;2023-02-04T12:23:45;4.30;62.20
9425;DHT22;17139;52.140;11.636;2023-02-04T12:26:12;4.30;62.40
9425;DHT22;17139;52.140;11.636;2023-02-04T12:28:40;4.20;62.40
9425;DHT22;17139;52.140;11.636;2023-02-04T12:31:07;4.70;62.00
9425;DHT22;17139;52.140;11.636;2023-02-04T12:33:34;5.20;59.20
9425;DHT22;17139;52.140;11.636;2023-02-04T12:36:02;5.20;59.30
9425;DHT22;17139;52.140;11.636;2023-02-04T12:38:29;5.20;60.10
9425;DHT22;17139;52.140;11.636;2023-02-04T12:40:56;5.10;60.60
9425;DHT22;17139;52.140;11.636;2023-02-04T12:43:25;5.10;60.90
9425;DHT22;17139;52.140;11.636;2023-02-04T12:45:53;5.10;61.10
9425;DHT22;17139;52.140;11.636;2023-02-04T12:48:20;5.00;61.30
9425;DHT22;17139;52.140;11.636;2023-02-04T12:50:47;5.00;61.50
9425;DHT22;17139;52.140;11.636;2023-02-04T12:53:14;4.90;61.50
9425;DHT22;17139;52.140;11.636;2023-02-04T12:55:42;4.90;61.70
9425;DHT22;17139;52.140;11.636;2023-02-04T12:58:09;4.90;61.70
9425;DHT22;17139;52.140;11.636;2023-02-04T13:00:36;4.80;61.70
9425;DHT22;17139;52.140;11.636;2023-02-04T13:03:05;5.10;60.50
9425;DHT22;17139;52.140;11.636;2023-02-04T13:05:32;4.90;60.90
9425;DHT22;17139;52.140;11.636;2023-02-04T13:08:00;5.00;60.20
9425;DHT22;17139;52.140;11.636;2023-02-04T13:10:27;5.00;59.50
9425;DHT22;17139;52.140;11.636;2023-02-04T13:12:54;4.70;60.30
9425;DHT22;17139;52.140;11.636;2023-02-04T13:15:21;4.40;61.20
9425;DHT22;17139;52.140;11.636;2023-02-04T13:17:48;4.20;62.00
9425;DHT22;17139;52.140;11.636;2023-02-04T13:20:17;4.10;62.40
9425;DHT22;17139;52.140;11.636;2023-02-04T13:22:45;4.10;62.70
9425;DHT22;17139;52.140;11.636;2023-02-04T13:25:12;4.00;62.80
9425;DHT22;17139;52.140;11.636;2023-02-04T13:27:39;3.90;62.90
9425;DHT22;17139;52.140;11.636;2023-02-04T13:30:08;3.90;63.00
9425;DHT22;17139;52.140;11.636;2023-02-04T13:32:37;3.90;63.00
9425;DHT22;17139;52.140;11.636;2023-02-04T13:35:04;4.00;63.10
9425;DHT22;17139;52.140;11.636;2023-02-04T13:37:33;4.00;63.10
9425;DHT22;17139;52.140;11.636;2023-02-04T13:40:00;4.80;59.60
9425;DHT22;17139;52.140;11.636;2023-02-04T13:42:27;4.70;60.30
9425;DHT22;17139;52.140;11.636;2023-02-04T13:44:54;4.70;59.60
9425;DHT22;17139;52.140;11.636;2023-02-04T13:47:21;4.60;60.50
9425;DHT22;17139;52.140;11.636;2023-02-04T13:49:48;4.40;61.00
9425;DHT22;17139;52.140;11.636;2023-02-04T13:52:15;4.30;61.60
9425;DHT22;17139;52.140;11.636;2023-02-04T13:54:44;4.30;61.90
9425;DHT22;17139;52.140;11.636;2023-02-04T13:57:11;4.30;62.10
9425;DHT22;17139;52.140;11.636;2023-02-04T13:59:38;4.20;62.20
9425;DHT22;17139;52.140;11.636;2023-02-04T14:02:05;4.20;62.40
9425;DHT22;17139;52.140;11.636;2023-02-04T14:04:32;4.10;62.60
9425;DHT22;17139;52.140;11.636;2023-02-04T14:06:59;4.10;62.80
9425;DHT22;17139;52.140;11.636;2023-02-04T14:09:26;4.10;62.80
9425;DHT22;17139;52.140;11.636;2023-02-04T14:11:55;4.00;62.80
9425;DHT22;17139;52.140;11.636;2023-02-04T14:14:22;4.00;62.60
9425;DHT22;17139;52.140;11.636;2023-02-04T14:16:49;4.50;60.50
9425;DHT22;17139;52.140;11.636;2023-02-04T14:19:16;4.40;60.90
9425;DHT22;17139;52.140;11.636;2023-02-04T14:21:44;4.20;61.70
9425;DHT22;17139;52.140;11.636;2023-02-04T14:24:11;4.00;62.30
9425;DHT22;17139;52.140;11.636;2023-02-04T14:26:38;4.00;62.60
9425;DHT22;17139;52.140;11.636;2023-02-04T14:29:06;3.90;62.50
9425;DHT22;17139;52.140;11.636;2023-02-04T14:31:33;3.80;62.40
9425;DHT22;17139;52.140;11.636;2023-02-04T14:34:01;3.80;62.70
9425;DHT22;17139;52.140;11.636;2023-02-04T14:36:28;3.70;62.70
9425;DHT22;17139;52.140;11.636;2023-02-04T14:38:55;3.70;62.80
9425;DHT22;17139;52.140;11.636;2023-02-04T14:41:22;3.60;62.70
9425;DHT22;17139;52.140;11.636;2023-02-04T14:43:51;3.50;62.60
9425;DHT22;17139;52.140;11.636;2023-02-04T14:46:19;3.40;62.80
9425;DHT22;17139;52.140;11.636;2023-02-04T14:48:46;3.90;61.10
9425;DHT22;17139;52.140;11.636;2023-02-04T14:51:16;3.80;61.20
9425;DHT22;17139;52.140;11.636;2023-02-04T14:53:44;3.60;61.80
9425;DHT22;17139;52.140;11.636;2023-02-04T14:56:11;3.40;62.30
9425;DHT22;17139;52.140;11.636;2023-02-04T14:58:38;3.30;62.40
9425;DHT22;17139;52.140;11.636;2023-02-04T15:01:05;3.30;62.90
9425;DHT22;17139;52.140;11.636;2023-02-04T15:03:34;3.20;63.00
9425;DHT22;17139;52.140;11.636;2023-02-04T15:06:01;3.10;63.80
9425;DHT22;17139;52.140;11.636;2023-02-04T15:08:28;3.10;63.10
9425;DHT22;17139;52.140;11.636;2023-02-04T15:10:57;3.00;63.20
9425;DHT22;17139;52.140;11.636;2023-02-04T15:13:24;3.00;63.30
9425;DHT22;17139;52.140;11.636;2023-02-04T15:15:52;3.00;63.40
9425;DHT22;17139;52.140;11.636;2023-02-04T15:18:19;2.90;63.40
9425;DHT22;17139;52.140;11.636;2023-02-04T15:20:47;2.90;63.50
9425;DHT22;17139;52.140;11.636;2023-02-04T15:23:15;3.20;62.30
9425;DHT22;17139;52.140;11.636;2023-02-04T15:25:42;3.10;62.20
9425;DHT22;17139;52.140;11.636;2023-02-04T15:28:09;3.00;62.60
9425;DHT22;17139;52.140;11.636;2023-02-04T15:30:36;2.90;62.90
9425;DHT22;17139;52.140;11.636;2023-02-04T15:33:04;2.80;63.10
9425;DHT22;17139;52.140;11.636;2023-02-04T15:35:31;2.70;63.30
9425;DHT22;17139;52.140;11.636;2023-02-04T15:37:59;2.60;63.50
9425;DHT22;17139;52.140;11.636;2023-02-04T15:40:26;2.60;63.70
9425;DHT22;17139;52.140;11.636;2023-02-04T15:42:54;2.60;63.90
9425;DHT22;17139;52.140;11.636;2023-02-04T15:45:21;2.50;64.00
9425;DHT22;17139;52.140;11.636;2023-02-04T15:47:48;2.50;64.00
9425;DHT22;17139;52.140;11.636;2023-02-04T15:50:16;2.60;63.60